sensor_id;sensor_type;location;lat;lon;timestamp;temperature;humidity
58809;DHT22;44579;51.672;7.834;2024-02-26T00:01:46;5.50;82.50
58809;DHT22;44579;51.672;7.834;2024-02-26T00:04:13;5.50;82.50
58809;DHT22;44579;51.672;7.834;2024-02-26T00:06:41;5.60;82.50
58809;DHT22;44579;51.672;7.834;2024-02-26T00:09:08;5.60;82.60
58809;DHT22;44579;51.672;7.834;2024-02-26T00:11:35;5.60;82.50
58809;DHT22;44579;51.672;7.834;2024-02-26T00:14:03;5.60;83.30
58809;DHT22;44579;51.672;7.834;2024-02-26T00:16:30;5.60;82.40
58809;DHT22;44579;51.672;7.834;2024-02-26T00:18:57;5.60;83.30
58809;DHT22;44579;51.672;7.834;2024-02-26T00:21:24;5.60;82.40
58809;DHT22;44579;51.672;7.834;2024-02-26T00:23:52;5.70;82.50
58809;DHT22;44579;51.672;7.834;2024-02-26T00:26:19;5.70;82.50
58809;DHT22;44579;51.672;7.834;2024-02-26T00:28:46;5.70;82.50
58809;DHT22;44579;51.672;7.834;2024-02-26T00:31:13;5.70;82.60
58809;DHT22;44579;51.672;7.834;2024-02-26T00:33:40;5.80;82.60
58809;DHT22;44579;51.672;7.834;2024-02-26T00:36:08;5.70;82.60
58809;DHT22;44579;51.672;7.834;2024-02-26T00:38:35;5.70;82.60
58809;DHT22;44579;51.672;7.834;2024-02-26T00:41:02;5.70;82.70
58809;DHT22;44579;51.672;7.834;2024-02-26T00:43:29;5.80;82.70
58809;DHT22;44579;51.672;7.834;2024-02-26T00:45:56;5.70;82.50
58809;DHT22;44579;51.672;7.834;2024-02-26T00:48:23;5.70;82.50
58809;DHT22;44579;51.672;7.834;2024-02-26T00:50:52;5.60;82.60
58809;DHT22;44579;51.672;7.834;2024-02-26T00:53:19;5.70;82.70
58809;DHT22;44579;51.672;7.834;2024-02-26T00:55:46;5.70;82.70
58809;DHT22;44579;51.672;7.834;2024-02-26T00:58:13;5.70;82.90
58809;DHT22;44579;51.672;7.834;2024-02-26T01:00:39;5.70;82.70
58809;DHT22;44579;51.672;7.834;2024-02-26T01:03:07;5.70;82.70
58809;DHT22;44579;51.672;7.834;2024-02-26T01:05:33;5.70;82.80
58809;DHT22;44579;51.672;7.834;2024-02-26T01:08:00;5.70;82.80
58809;DHT22;44579;51.672;7.834;2024-02-26T01:10:27;5.80;82.80
58809;DHT22;44579;51.672;7.834;2024-02-26T01:12:54;5.80;82.70
58809;DHT22;44579;51.672;7.834;2024-02-26T01:15:21;5.80;82.60
58809;DHT22;44579;51.672;7.834;2024-02-26T01:17:50;5.80;82.60
58809;DHT22;44579;51.672;7.834;2024-02-26T01:20:18;5.80;82.60
58809;DHT22;44579;51.672;7.834;2024-02-26T01:22:45;5.80;82.50
58809;DHT22;44579;51.672;7.834;2024-02-26T01:25:12;5.80;82.40
58809;DHT22;44579;51.672;7.834;2024-02-26T01:27:39;5.80;82.50
58809;DHT22;44579;51.672;7.834;2024-02-26T01:30:07;5.80;82.50
58809;DHT22;44579;51.672;7.834;2024-02-26T01:32:35;5.80;82.50
58809;DHT22;44579;51.672;7.834;2024-02-26T01:35:03;5.80;82.60
58809;DHT22;44579;51.672;7.834;2024-02-26T01:37:30;5.80;82.70
58809;DHT22;44579;51.672;7.834;2024-02-26T01:39:56;5.80;82.70
58809;DHT22;44579;51.672;7.834;2024-02-26T01:42:23;5.90;82.70
58809;DHT22;44579;51.672;7.834;2024-02-26T01:44:50;5.90;82.70
58809;DHT22;44579;51.672;7.834;2024-02-26T01:47:17;5.90;82.90
58809;DHT22;44579;51.672;7.834;2024-02-26T01:49:44;5.90;82.90
58809;DHT22;44579;51.672;7.834;2024-02-26T01:52:11;5.90;82.90
58809;DHT22;44579;51.672;7.834;2024-02-26T01:54:38;5.90;82.90
58809;DHT22;44579;51.672;7.834;2024-02-26T01:57:06;5.90;83.00
58809;DHT22;44579;51.672;7.834;2024-02-26T01:59:34;5.90;83.00
58809;DHT22;44579;51.672;7.834;2024-02-26T02:02:03;5.90;83.00
58809;DHT22;44579;51.672;7.834;2024-02-26T02:04:30;5.90;83.00
58809;DHT22;44579;51.672;7.834;2024-02-26T02:06:57;6.00;83.10
58809;DHT22;44579;51.672;7.834;2024-02-26T02:09:24;6.00;83.10
58809;DHT22;44579;51.672;7.834;2024-02-26T02:11:51;6.00;83.00
58809;DHT22;44579;51.672;7.834;2024-02-26T02:14:19;6.00;83.10
58809;DHT22;44579;51.672;7.834;2024-02-26T02:16:47;6.00;83.10
58809;DHT22;44579;51.672;7.834;2024-02-26T02:19:14;6.00;83.10
58809;DHT22;44579;51.672;7.834;2024-02-26T02:21:41;6.00;83.10
58809;DHT22;44579;51.672;7.834;2024-02-26T02:24:07;6.00;83.00
58809;DHT22;44579;51.672;7.834;2024-02-26T02:26:35;6.00;83.00
58809;DHT22;44579;51.672;7.834;2024-02-26T02:29:02;6.00;83.00
58809;DHT22;44579;51.672;7.834;2024-02-26T02:31:31;6.00;83.00
58809;DHT22;44579;51.672;7.834;2024-02-26T02:33:58;6.00;83.10
58809;DHT22;44579;51.672;7.834;2024-02-26T02:36:25;6.10;83.20
58809;DHT22;44579;51.672;7.834;2024-02-26T02:38:52;6.00;83.10
58809;DHT22;44579;51.672;7.834;2024-02-26T02:41:19;6.00;83.20
58809;DHT22;44579;51.672;7.834;2024-02-26T02:43:46;6.00;83.20
58809;DHT22;44579;51.672;7.834;2024-02-26T02:46:13;6.00;83.30
58809;DHT22;44579;51.672;7.834;2024-02-26T02:48:41;6.00;83.40
58809;DHT22;44579;51.672;7.834;2024-02-26T02:51:09;6.00;83.40
58809;DHT22;44579;51.672;7.834;2024-02-26T02:53:36;6.00;83.50
58809;DHT22;44579;51.672;7.834;2024-02-26T02:56:02;6.00;83.50
58809;DHT22;44579;51.672;7.834;2024-02-26T02:58:29;6.00;83.50
58809;DHT22;44579;51.672;7.834;2024-02-26T03:00:56;6.00;83.60
58809;DHT22;44579;51.672;7.834;2024-02-26T03:03:23;5.90;83.50
58809;DHT22;44579;51.672;7.834;2024-02-26T03:05:51;5.90;83.50
58809;DHT22;44579;51.672;7.834;2024-02-26T03:08:18;5.90;83.60
58809;DHT22;44579;51.672;7.834;2024-02-26T03:10:45;6.00;83.70
58809;DHT22;44579;51.672;7.834;2024-02-26T03:13:12;6.00;83.60
58809;DHT22;44579;51.672;7.834;2024-02-26T03:15:39;6.00;83.60
58809;DHT22;44579;51.672;7.834;2024-02-26T03:18:06;6.00;83.50
58809;DHT22;44579;51.672;7.834;2024-02-26T03:20:33;6.00;83.50
58809;DHT22;44579;51.672;7.834;2024-02-26T03:23:00;6.00;83.50
58809;DHT22;44579;51.672;7.834;2024-02-26T03:25:27;6.00;83.50
58809;DHT22;44579;51.672;7.834;2024-02-26T03:27:54;6.10;83.60
58809;DHT22;44579;51.672;7.834;2024-02-26T03:30:21;6.10;83.60
58809;DHT22;44579;51.672;7.834;2024-02-26T03:32:48;6.10;83.60
58809;DHT22;44579;51.672;7.834;2024-02-26T03:35:15;6.10;83.60
58809;DHT22;44579;51.672;7.834;2024-02-26T03:37:42;6.10;83.60
58809;DHT22;44579;51.672;7.834;2024-02-26T03:40:09;6.10;83.60
58809;DHT22;44579;51.672;7.834;2024-02-26T03:42:36;6.10;83.60
58809;DHT22;44579;51.672;7.834;2024-02-26T03:45:03;6.10;83.50
58809;DHT22;44579;51.672;7.834;2024-02-26T03:47:30;6.20;83.60
58809;DHT22;44579;51.672;7.834;2024-02-26T03:49:57;6.20;83.60
58809;DHT22;44579;51.672;7.834;2024-02-26T03:52:25;6.20;83.60
58809;DHT22;44579;51.672;7.834;2024-02-26T03:54:52;6.20;83.60
58809;DHT22;44579;51.672;7.834;2024-02-26T03:57:19;6.20;83.60
58809;DHT22;44579;51.672;7.834;2024-02-26T03:59:46;6.20;83.60
58809;DHT22;44579;51.672;7.834;2024-02-26T04:02:13;6.20;83.60
58809;DHT22;44579;51.672;7.834;2024-02-26T04:04:41;6.20;83.50
58809;DHT22;44579;51.672;7.834;2024-02-26T04:07:08;6.20;83.50
58809;DHT22;44579;51.672;7.834;2024-02-26T04:09:35;6.20;83.50
58809;DHT22;44579;51.672;7.834;2024-02-26T04:12:02;6.30;83.60
58809;DHT22;44579;51.672;7.834;2024-02-26T04:14:29;6.20;83.50
58809;DHT22;44579;51.672;7.834;2024-02-26T04:16:56;6.20;83.50
58809;DHT22;44579;51.672;7.834;2024-02-26T04:19:23;6.20;83.50
58809;DHT22;44579;51.672;7.834;2024-02-26T04:21:50;6.30;83.60
58809;DHT22;44579;51.672;7.834;2024-02-26T04:24:17;6.30;83.50
58809;DHT22;44579;51.672;7.834;2024-02-26T04:26:43;6.30;83.40
58809;DHT22;44579;51.672;7.834;2024-02-26T04:29:10;6.30;83.50
58809;DHT22;44579;51.672;7.834;2024-02-26T04:31:37;6.30;83.50
58809;DHT22;44579;51.672;7.834;2024-02-26T04:34:04;6.30;83.60
58809;DHT22;44579;51.672;7.834;2024-02-26T04:36:31;6.30;83.60
58809;DHT22;44579;51.672;7.834;2024-02-26T04:38:58;6.30;83.80
58809;DHT22;44579;51.672;7.834;2024-02-26T04:41:25;6.20;84.00
58809;DHT22;44579;51.672;7.834;2024-02-26T04:43:52;6.20;84.10
58809;DHT22;44579;51.672;7.834;2024-02-26T04:46:19;6.20;84.40
58809;DHT22;44579;51.672;7.834;2024-02-26T04:48:48;6.20;84.50
58809;DHT22;44579;51.672;7.834;2024-02-26T04:51:15;6.20;84.60
58809;DHT22;44579;51.672;7.834;2024-02-26T04:53:42;6.20;84.60
58809;DHT22;44579;51.672;7.834;2024-02-26T04:56:09;6.10;84.50
58809;DHT22;44579;51.672;7.834;2024-02-26T04:58:36;6.10;84.50
58809;DHT22;44579;51.672;7.834;2024-02-26T05:01:02;6.10;84.50
58809;DHT22;44579;51.672;7.834;2024-02-26T05:03:30;6.10;84.50
58809;DHT22;44579;51.672;7.834;2024-02-26T05:06:00;6.10;84.50
58809;DHT22;44579;51.672;7.834;2024-02-26T05:08:27;6.10;84.70
58809;DHT22;44579;51.672;7.834;2024-02-26T05:10:55;6.10;85.70
58809;DHT22;44579;51.672;7.834;2024-02-26T05:13:22;6.10;85.20
58809;DHT22;44579;51.672;7.834;2024-02-26T05:15:49;6.10;85.50
58809;DHT22;44579;51.672;7.834;2024-02-26T05:18:19;6.20;85.80
58809;DHT22;44579;51.672;7.834;2024-02-26T05:20:46;6.20;86.30
58809;DHT22;44579;51.672;7.834;2024-02-26T05:23:13;6.10;86.50
58809;DHT22;44579;51.672;7.834;2024-02-26T05:25:40;6.10;86.60
58809;DHT22;44579;51.672;7.834;2024-02-26T05:28:07;6.10;86.80
58809;DHT22;44579;51.672;7.834;2024-02-26T05:30:35;6.10;86.70
58809;DHT22;44579;51.672;7.834;2024-02-26T05:33:02;6.10;86.70
58809;DHT22;44579;51.672;7.834;2024-02-26T05:35:29;6.10;86.80
58809;DHT22;44579;51.672;7.834;2024-02-26T05:37:56;6.10;86.70
58809;DHT22;44579;51.672;7.834;2024-02-26T05:40:22;6.10;87.00
58809;DHT22;44579;51.672;7.834;2024-02-26T05:42:49;6.10;87.40
58809;DHT22;44579;51.672;7.834;2024-02-26T05:45:16;6.10;87.40
58809;DHT22;44579;51.672;7.834;2024-02-26T05:47:43;6.10;87.30
58809;DHT22;44579;51.672;7.834;2024-02-26T05:50:10;6.10;87.00
58809;DHT22;44579;51.672;7.834;2024-02-26T05:52:37;6.10;86.90
58809;DHT22;44579;51.672;7.834;2024-02-26T05:55:08;6.10;86.90
58809;DHT22;44579;51.672;7.834;2024-02-26T05:57:35;6.10;86.80
58809;DHT22;44579;51.672;7.834;2024-02-26T06:00:02;6.10;86.60
58809;DHT22;44579;51.672;7.834;2024-02-26T06:02:38;6.10;86.50
58809;DHT22;44579;51.672;7.834;2024-02-26T06:05:05;6.10;86.40
58809;DHT22;44579;51.672;7.834;2024-02-26T06:07:34;6.20;86.50
58809;DHT22;44579;51.672;7.834;2024-02-26T06:10:04;6.20;86.40
58809;DHT22;44579;51.672;7.834;2024-02-26T06:12:31;6.20;86.30
58809;DHT22;44579;51.672;7.834;2024-02-26T06:15:01;6.20;86.20
58809;DHT22;44579;51.672;7.834;2024-02-26T06:17:28;6.20;86.10
58809;DHT22;44579;51.672;7.834;2024-02-26T06:19:55;6.20;86.10
58809;DHT22;44579;51.672;7.834;2024-02-26T06:22:22;6.20;86.00
58809;DHT22;44579;51.672;7.834;2024-02-26T06:24:49;6.20;86.00
58809;DHT22;44579;51.672;7.834;2024-02-26T06:27:16;6.20;85.90
58809;DHT22;44579;51.672;7.834;2024-02-26T06:29:43;6.20;85.90
58809;DHT22;44579;51.672;7.834;2024-02-26T06:32:10;6.20;85.90
58809;DHT22;44579;51.672;7.834;2024-02-26T06:34:37;6.20;85.70
58809;DHT22;44579;51.672;7.834;2024-02-26T06:37:05;6.30;85.80
58809;DHT22;44579;51.672;7.834;2024-02-26T06:39:33;6.30;85.80
58809;DHT22;44579;51.672;7.834;2024-02-26T06:41:59;6.30;85.80
58809;DHT22;44579;51.672;7.834;2024-02-26T06:44:29;6.30;85.70
58809;DHT22;44579;51.672;7.834;2024-02-26T06:46:59;6.30;85.70
58809;DHT22;44579;51.672;7.834;2024-02-26T06:49:27;6.30;85.60
58809;DHT22;44579;51.672;7.834;2024-02-26T06:51:54;6.30;85.60
58809;DHT22;44579;51.672;7.834;2024-02-26T06:54:21;6.30;85.60
58809;DHT22;44579;51.672;7.834;2024-02-26T06:56:48;6.30;85.50
58809;DHT22;44579;51.672;7.834;2024-02-26T06:59:15;6.30;85.60
58809;DHT22;44579;51.672;7.834;2024-02-26T07:01:43;6.30;85.50
58809;DHT22;44579;51.672;7.834;2024-02-26T07:04:10;6.30;85.50
58809;DHT22;44579;51.672;7.834;2024-02-26T07:06:37;6.30;85.50
58809;DHT22;44579;51.672;7.834;2024-02-26T07:09:05;6.30;85.50
58809;DHT22;44579;51.672;7.834;2024-02-26T07:11:32;6.40;85.50
58809;DHT22;44579;51.672;7.834;2024-02-26T07:14:00;6.40;85.50
58809;DHT22;44579;51.672;7.834;2024-02-26T07:16:27;6.40;85.50
58809;DHT22;44579;51.672;7.834;2024-02-26T07:18:54;6.40;85.50
58809;DHT22;44579;51.672;7.834;2024-02-26T07:21:21;6.40;85.50
58809;DHT22;44579;51.672;7.834;2024-02-26T07:23:48;6.40;85.50
58809;DHT22;44579;51.672;7.834;2024-02-26T07:26:15;6.40;85.50
58809;DHT22;44579;51.672;7.834;2024-02-26T07:28:45;6.40;85.50
58809;DHT22;44579;51.672;7.834;2024-02-26T07:31:12;6.50;85.60
58809;DHT22;44579;51.672;7.834;2024-02-26T07:33:39;6.40;85.50
58809;DHT22;44579;51.672;7.834;2024-02-26T07:36:08;6.50;85.60
58809;DHT22;44579;51.672;7.834;2024-02-26T07:38:35;6.50;85.50
58809;DHT22;44579;51.672;7.834;2024-02-26T07:41:09;6.40;85.50
58809;DHT22;44579;51.672;7.834;2024-02-26T07:43:37;6.50;85.50
58809;DHT22;44579;51.672;7.834;2024-02-26T07:46:04;6.50;85.50
58809;DHT22;44579;51.672;7.834;2024-02-26T07:48:31;6.50;85.60
58809;DHT22;44579;51.672;7.834;2024-02-26T07:50:59;6.60;85.60
58809;DHT22;44579;51.672;7.834;2024-02-26T07:53:27;6.50;86.30
58809;DHT22;44579;51.672;7.834;2024-02-26T07:55:54;6.60;85.60
58809;DHT22;44579;51.672;7.834;2024-02-26T07:58:21;6.60;85.60
58809;DHT22;44579;51.672;7.834;2024-02-26T08:00:48;6.60;85.70
58809;DHT22;44579;51.672;7.834;2024-02-26T08:03:15;6.60;85.70
58809;DHT22;44579;51.672;7.834;2024-02-26T08:05:43;6.60;85.80
58809;DHT22;44579;51.672;7.834;2024-02-26T08:08:10;6.60;85.80
58809;DHT22;44579;51.672;7.834;2024-02-26T08:10:40;6.60;85.80
58809;DHT22;44579;51.672;7.834;2024-02-26T08:13:07;6.70;85.90
58809;DHT22;44579;51.672;7.834;2024-02-26T08:15:37;6.70;85.90
58809;DHT22;44579;51.672;7.834;2024-02-26T08:18:04;6.80;85.90
58809;DHT22;44579;51.672;7.834;2024-02-26T08:20:31;6.80;85.90
58809;DHT22;44579;51.672;7.834;2024-02-26T08:22:58;6.80;85.70
58809;DHT22;44579;51.672;7.834;2024-02-26T08:25:25;6.90;85.70
58809;DHT22;44579;51.672;7.834;2024-02-26T08:27:53;6.90;85.70
58809;DHT22;44579;51.672;7.834;2024-02-26T08:30:20;6.90;85.70
58809;DHT22;44579;51.672;7.834;2024-02-26T08:32:47;7.00;85.70
58809;DHT22;44579;51.672;7.834;2024-02-26T08:35:18;7.00;85.50
58809;DHT22;44579;51.672;7.834;2024-02-26T08:37:46;7.00;85.50
58809;DHT22;44579;51.672;7.834;2024-02-26T08:40:14;7.00;85.60
58809;DHT22;44579;51.672;7.834;2024-02-26T08:42:41;7.00;85.40
58809;DHT22;44579;51.672;7.834;2024-02-26T08:45:09;7.10;85.40
58809;DHT22;44579;51.672;7.834;2024-02-26T08:47:37;7.10;85.40
58809;DHT22;44579;51.672;7.834;2024-02-26T08:50:08;7.20;85.50
58809;DHT22;44579;51.672;7.834;2024-02-26T08:52:39;7.20;85.40
58809;DHT22;44579;51.672;7.834;2024-02-26T08:55:07;7.20;85.30
58809;DHT22;44579;51.672;7.834;2024-02-26T08:57:35;7.30;85.30
58809;DHT22;44579;51.672;7.834;2024-02-26T09:00:05;7.40;85.20
58809;DHT22;44579;51.672;7.834;2024-02-26T09:02:32;7.40;85.30
58809;DHT22;44579;51.672;7.834;2024-02-26T09:05:00;7.50;85.20
58809;DHT22;44579;51.672;7.834;2024-02-26T09:07:26;7.50;85.70
58809;DHT22;44579;51.672;7.834;2024-02-26T09:09:56;7.50;85.50
58809;DHT22;44579;51.672;7.834;2024-02-26T09:12:23;7.50;85.50
58809;DHT22;44579;51.672;7.834;2024-02-26T09:14:53;7.60;85.30
58809;DHT22;44579;51.672;7.834;2024-02-26T09:17:22;7.70;85.30
58809;DHT22;44579;51.672;7.834;2024-02-26T09:19:49;7.70;85.40
58809;DHT22;44579;51.672;7.834;2024-02-26T09:22:16;7.70;85.30
58809;DHT22;44579;51.672;7.834;2024-02-26T09:24:44;7.80;85.30
58809;DHT22;44579;51.672;7.834;2024-02-26T09:27:11;7.90;85.10
58809;DHT22;44579;51.672;7.834;2024-02-26T09:29:38;7.90;85.20
58809;DHT22;44579;51.672;7.834;2024-02-26T09:32:05;8.00;85.20
58809;DHT22;44579;51.672;7.834;2024-02-26T09:34:32;8.00;85.40
58809;DHT22;44579;51.672;7.834;2024-02-26T09:37:00;8.10;85.20
58809;DHT22;44579;51.672;7.834;2024-02-26T09:39:41;8.10;84.90
58809;DHT22;44579;51.672;7.834;2024-02-26T09:42:08;8.20;85.00
58809;DHT22;44579;51.672;7.834;2024-02-26T09:44:36;8.20;84.50
58809;DHT22;44579;51.672;7.834;2024-02-26T09:47:06;8.20;84.50
58809;DHT22;44579;51.672;7.834;2024-02-26T09:49:34;8.20;85.70
58809;DHT22;44579;51.672;7.834;2024-02-26T09:52:01;8.30;84.30
58809;DHT22;44579;51.672;7.834;2024-02-26T09:54:29;8.30;84.30
58809;DHT22;44579;51.672;7.834;2024-02-26T09:56:59;8.40;84.40
58809;DHT22;44579;51.672;7.834;2024-02-26T09:59:34;8.40;84.40
58809;DHT22;44579;51.672;7.834;2024-02-26T10:02:15;8.50;84.10
58809;DHT22;44579;51.672;7.834;2024-02-26T10:04:45;8.50;83.60
58809;DHT22;44579;51.672;7.834;2024-02-26T10:07:17;8.50;83.50
58809;DHT22;44579;51.672;7.834;2024-02-26T10:09:45;8.60;83.00
58809;DHT22;44579;51.672;7.834;2024-02-26T10:12:12;8.60;82.60
58809;DHT22;44579;51.672;7.834;2024-02-26T10:14:39;8.60;82.20
58809;DHT22;44579;51.672;7.834;2024-02-26T10:17:07;8.60;82.10
58809;DHT22;44579;51.672;7.834;2024-02-26T10:19:35;8.60;81.70
58809;DHT22;44579;51.672;7.834;2024-02-26T10:22:05;8.60;81.50
58809;DHT22;44579;51.672;7.834;2024-02-26T10:24:32;8.60;81.70
58809;DHT22;44579;51.672;7.834;2024-02-26T10:27:02;8.60;81.40
58809;DHT22;44579;51.672;7.834;2024-02-26T10:29:29;8.60;81.10
58809;DHT22;44579;51.672;7.834;2024-02-26T10:31:56;8.60;80.60
58809;DHT22;44579;51.672;7.834;2024-02-26T10:34:23;8.70;80.40
58809;DHT22;44579;51.672;7.834;2024-02-26T10:36:50;8.60;79.90
58809;DHT22;44579;51.672;7.834;2024-02-26T10:39:20;8.60;79.80
58809;DHT22;44579;51.672;7.834;2024-02-26T10:41:48;8.60;79.90
58809;DHT22;44579;51.672;7.834;2024-02-26T10:44:16;8.60;80.00
58809;DHT22;44579;51.672;7.834;2024-02-26T10:46:48;8.60;79.70
58809;DHT22;44579;51.672;7.834;2024-02-26T10:49:19;8.60;79.70
58809;DHT22;44579;51.672;7.834;2024-02-26T10:51:55;8.60;80.00
58809;DHT22;44579;51.672;7.834;2024-02-26T10:54:26;8.60;79.90
58809;DHT22;44579;51.672;7.834;2024-02-26T10:56:56;8.50;79.60
58809;DHT22;44579;51.672;7.834;2024-02-26T10:59:23;8.50;79.30
58809;DHT22;44579;51.672;7.834;2024-02-26T11:01:50;8.60;79.50
58809;DHT22;44579;51.672;7.834;2024-02-26T11:04:17;8.60;79.50
58809;DHT22;44579;51.672;7.834;2024-02-26T11:06:45;8.60;79.50
58809;DHT22;44579;51.672;7.834;2024-02-26T11:09:14;8.60;79.60
58809;DHT22;44579;51.672;7.834;2024-02-26T11:11:42;8.60;79.60
58809;DHT22;44579;51.672;7.834;2024-02-26T11:14:09;8.60;79.60
58809;DHT22;44579;51.672;7.834;2024-02-26T11:16:37;8.60;79.60
58809;DHT22;44579;51.672;7.834;2024-02-26T11:19:06;8.70;79.70
58809;DHT22;44579;51.672;7.834;2024-02-26T11:21:34;8.60;79.70
58809;DHT22;44579;51.672;7.834;2024-02-26T11:24:11;8.60;79.80
58809;DHT22;44579;51.672;7.834;2024-02-26T11:27:00;8.60;79.70
58809;DHT22;44579;51.672;7.834;2024-02-26T11:29:38;8.60;79.70
58809;DHT22;44579;51.672;7.834;2024-02-26T11:32:06;8.60;79.90
58809;DHT22;44579;51.672;7.834;2024-02-26T11:34:34;8.60;79.90
58809;DHT22;44579;51.672;7.834;2024-02-26T11:37:11;8.70;80.00
58809;DHT22;44579;51.672;7.834;2024-02-26T11:39:41;8.70;80.00
58809;DHT22;44579;51.672;7.834;2024-02-26T11:42:08;8.80;79.90
58809;DHT22;44579;51.672;7.834;2024-02-26T11:44:36;8.80;79.70
58809;DHT22;44579;51.672;7.834;2024-02-26T11:47:12;8.80;79.60
58809;DHT22;44579;51.672;7.834;2024-02-26T11:49:40;8.80;79.60
58809;DHT22;44579;51.672;7.834;2024-02-26T11:52:08;8.70;79.40
58809;DHT22;44579;51.672;7.834;2024-02-26T11:54:45;8.70;79.30
58809;DHT22;44579;51.672;7.834;2024-02-26T11:59:56;8.70;79.60
58809;DHT22;44579;51.672;7.834;2024-02-26T12:05:16;8.80;79.80
58809;DHT22;44579;51.672;7.834;2024-02-26T12:07:44;8.80;79.80
58809;DHT22;44579;51.672;7.834;2024-02-26T12:10:23;8.80;79.70
58809;DHT22;44579;51.672;7.834;2024-02-26T12:13:00;8.80;79.70
58809;DHT22;44579;51.672;7.834;2024-02-26T12:15:31;8.80;79.70
58809;DHT22;44579;51.672;7.834;2024-02-26T12:18:03;8.80;79.70
58809;DHT22;44579;51.672;7.834;2024-02-26T12:20:31;8.80;79.70
58809;DHT22;44579;51.672;7.834;2024-02-26T12:22:58;8.80;79.80
58809;DHT22;44579;51.672;7.834;2024-02-26T12:25:26;8.80;79.60
58809;DHT22;44579;51.672;7.834;2024-02-26T12:27:53;8.80;79.60
58809;DHT22;44579;51.672;7.834;2024-02-26T12:30:21;8.80;79.30
58809;DHT22;44579;51.672;7.834;2024-02-26T12:32:48;8.80;79.10
58809;DHT22;44579;51.672;7.834;2024-02-26T12:35:16;8.80;79.10
58809;DHT22;44579;51.672;7.834;2024-02-26T12:37:43;8.80;79.20
58809;DHT22;44579;51.672;7.834;2024-02-26T12:40:11;8.80;79.30
58809;DHT22;44579;51.672;7.834;2024-02-26T12:42:39;8.80;79.30
58809;DHT22;44579;51.672;7.834;2024-02-26T12:45:10;8.80;79.30
58809;DHT22;44579;51.672;7.834;2024-02-26T12:47:38;8.80;79.30
58809;DHT22;44579;51.672;7.834;2024-02-26T12:50:06;8.80;79.40
58809;DHT22;44579;51.672;7.834;2024-02-26T12:52:36;8.80;79.30
58809;DHT22;44579;51.672;7.834;2024-02-26T12:55:05;8.80;79.50
58809;DHT22;44579;51.672;7.834;2024-02-26T12:57:32;8.70;79.60
58809;DHT22;44579;51.672;7.834;2024-02-26T12:59:59;8.70;79.70
58809;DHT22;44579;51.672;7.834;2024-02-26T13:02:27;8.70;79.90
58809;DHT22;44579;51.672;7.834;2024-02-26T13:04:54;8.70;80.30
58809;DHT22;44579;51.672;7.834;2024-02-26T13:07:21;8.60;80.70
58809;DHT22;44579;51.672;7.834;2024-02-26T13:09:48;8.60;81.00
58809;DHT22;44579;51.672;7.834;2024-02-26T13:12:15;8.60;81.10
58809;DHT22;44579;51.672;7.834;2024-02-26T13:14:43;8.60;81.40
58809;DHT22;44579;51.672;7.834;2024-02-26T13:17:10;8.60;81.50
58809;DHT22;44579;51.672;7.834;2024-02-26T13:19:37;8.60;81.50
58809;DHT22;44579;51.672;7.834;2024-02-26T13:22:07;8.70;81.50
58809;DHT22;44579;51.672;7.834;2024-02-26T13:24:34;8.70;81.50
58809;DHT22;44579;51.672;7.834;2024-02-26T13:27:02;8.70;81.30
58809;DHT22;44579;51.672;7.834;2024-02-26T13:29:31;8.80;81.30
58809;DHT22;44579;51.672;7.834;2024-02-26T13:31:58;8.80;81.20
58809;DHT22;44579;51.672;7.834;2024-02-26T13:34:27;8.90;81.20
58809;DHT22;44579;51.672;7.834;2024-02-26T13:36:54;8.90;80.90
58809;DHT22;44579;51.672;7.834;2024-02-26T13:39:22;8.90;80.80
58809;DHT22;44579;51.672;7.834;2024-02-26T13:41:52;8.90;80.70
58809;DHT22;44579;51.672;7.834;2024-02-26T13:44:20;9.00;80.70
58809;DHT22;44579;51.672;7.834;2024-02-26T13:46:47;9.00;80.50
58809;DHT22;44579;51.672;7.834;2024-02-26T13:49:15;9.00;80.50
58809;DHT22;44579;51.672;7.834;2024-02-26T13:51:43;9.00;80.20
58809;DHT22;44579;51.672;7.834;2024-02-26T13:54:10;9.00;80.10
58809;DHT22;44579;51.672;7.834;2024-02-26T13:56:37;9.00;80.00
58809;DHT22;44579;51.672;7.834;2024-02-26T13:59:05;8.90;80.00
58809;DHT22;44579;51.672;7.834;2024-02-26T14:01:32;9.00;79.90
58809;DHT22;44579;51.672;7.834;2024-02-26T14:04:00;8.90;80.00
58809;DHT22;44579;51.672;7.834;2024-02-26T14:06:29;8.90;80.00
58809;DHT22;44579;51.672;7.834;2024-02-26T14:08:58;8.90;80.00
58809;DHT22;44579;51.672;7.834;2024-02-26T14:11:28;8.80;79.50
58809;DHT22;44579;51.672;7.834;2024-02-26T14:13:56;8.80;79.70
58809;DHT22;44579;51.672;7.834;2024-02-26T14:16:23;8.70;79.60
58809;DHT22;44579;51.672;7.834;2024-02-26T14:18:50;8.70;79.70
58809;DHT22;44579;51.672;7.834;2024-02-26T14:21:18;8.70;79.60
58809;DHT22;44579;51.672;7.834;2024-02-26T14:23:44;8.60;79.70
58809;DHT22;44579;51.672;7.834;2024-02-26T14:26:12;8.60;79.70
58809;DHT22;44579;51.672;7.834;2024-02-26T14:28:39;8.60;79.80
58809;DHT22;44579;51.672;7.834;2024-02-26T14:31:06;8.60;79.70
58809;DHT22;44579;51.672;7.834;2024-02-26T14:33:39;8.50;79.70
58809;DHT22;44579;51.672;7.834;2024-02-26T14:36:07;8.50;79.70
58809;DHT22;44579;51.672;7.834;2024-02-26T14:38:35;8.50;79.60
58809;DHT22;44579;51.672;7.834;2024-02-26T14:41:02;8.50;79.60
58809;DHT22;44579;51.672;7.834;2024-02-26T14:43:29;8.50;79.60
58809;DHT22;44579;51.672;7.834;2024-02-26T14:45:57;8.50;79.60
58809;DHT22;44579;51.672;7.834;2024-02-26T14:48:24;8.50;79.50
58809;DHT22;44579;51.672;7.834;2024-02-26T14:50:51;8.50;79.50
58809;DHT22;44579;51.672;7.834;2024-02-26T14:53:18;8.50;79.50
58809;DHT22;44579;51.672;7.834;2024-02-26T14:55:45;8.50;79.60
58809;DHT22;44579;51.672;7.834;2024-02-26T14:58:12;8.50;79.50
58809;DHT22;44579;51.672;7.834;2024-02-26T15:00:39;8.50;79.40
58809;DHT22;44579;51.672;7.834;2024-02-26T15:03:07;8.50;79.40
58809;DHT22;44579;51.672;7.834;2024-02-26T15:05:35;8.50;79.50
58809;DHT22;44579;51.672;7.834;2024-02-26T15:08:02;8.50;79.50
58809;DHT22;44579;51.672;7.834;2024-02-26T15:10:29;8.50;79.60
58809;DHT22;44579;51.672;7.834;2024-02-26T15:12:56;8.50;79.70
58809;DHT22;44579;51.672;7.834;2024-02-26T15:15:23;8.50;79.70
58809;DHT22;44579;51.672;7.834;2024-02-26T15:17:50;8.50;79.70
58809;DHT22;44579;51.672;7.834;2024-02-26T15:20:18;8.50;79.70
58809;DHT22;44579;51.672;7.834;2024-02-26T15:22:45;8.50;79.80
58809;DHT22;44579;51.672;7.834;2024-02-26T15:25:13;8.50;79.80
58809;DHT22;44579;51.672;7.834;2024-02-26T15:27:42;8.50;79.80
58809;DHT22;44579;51.672;7.834;2024-02-26T15:30:09;8.60;79.70
58809;DHT22;44579;51.672;7.834;2024-02-26T15:32:36;8.60;79.60
58809;DHT22;44579;51.672;7.834;2024-02-26T15:35:03;8.60;79.70
58809;DHT22;44579;51.672;7.834;2024-02-26T15:37:30;8.60;79.70
58809;DHT22;44579;51.672;7.834;2024-02-26T15:39:57;8.60;79.70
58809;DHT22;44579;51.672;7.834;2024-02-26T15:42:24;8.60;79.90
58809;DHT22;44579;51.672;7.834;2024-02-26T15:44:52;8.50;80.00
58809;DHT22;44579;51.672;7.834;2024-02-26T15:47:20;8.50;80.30
58809;DHT22;44579;51.672;7.834;2024-02-26T15:49:47;8.40;80.50
58809;DHT22;44579;51.672;7.834;2024-02-26T15:52:13;8.40;80.90
58809;DHT22;44579;51.672;7.834;2024-02-26T15:54:41;8.40;81.50